Terminal Aerodrome Forecast
Issued by NWS Portland, OR

Home | Current Version | Previous Version | Text Only | Print | Product List | Glossary On
Versions: 1 2 3 4 5 6 7 8 9 10 11 12 13 14 15 16 17 18 19 20 21 22 23 24 25 26 27 28 29 30
000
FTUS46 KPQR 170524
TAFSLE
TAF
KSLE 170524Z 1706/1806 VRB03KT P6SM BKN250
     FM171000 16005KT P6SM -RA SCT050 OVC080
     FM171500 16008KT P6SM -RA BKN060 OVC100
     FM172200 18012KT 4SM -RA BKN035 OVC050
     FM180500 19015G25KT 6SM -RA BKN025 OVC040=

USA.gov is the U.S. government's official web portal to all federal, state and local government web resources and services.